WIMM/MES METAR and TAF weather

Enter ICAO airport designator
Station Type Date Time Source
WIMM METAR 2020/06/06 02:00 UTC NOAA

WIMM 060200Z 10004KT 080V150 9999 SCT017 BKN035 27/25 Q1011 NOSIG


Station Type Date Time Source
WIMM Decoded METAR 2020/06/06 02:00 UTC NOAA

Medan / Polonia, Indonesia (WIMM) 03-34N 098-41E 25M
Jun 05, 2020 - 10:00 PM EDT / 2020.06.06 0200 UTC
Wind: from the E (100 degrees) at 5 MPH (4 KT) (direction variable):0
Visibility: greater than 7 mile(s):0
Sky conditions: mostly cloudy
Temperature: 80 F (27 C)
Dew Point: 77 F (25 C)
Relative Humidity: 88%
Pressure (altimeter): 29.85 in. Hg (1011 hPa)
ob: WIMM 060200Z 10004KT 080V150 9999 SCT017 BKN035 27/25 Q1011 NOSIG
cycle: 2

Station Type Date Time Source
WIMM TAF 2020/06/05 18:06 UTC NOAA

TAF WIMM 051700Z 0518/0618 VRB03KT 4000 BR SCT018
BECMG 0603/0605 08010KT 9999 NSW
BECMG 0612/0614 24005KT 5000 HZ

Example: see airport list